createdAt,value
2023-03-18T00:02:03.636Z,-1.22
2023-03-18T00:04:30.718Z,-1.21
2023-03-18T00:06:58.125Z,-1.23
2023-03-18T00:09:25.179Z,-1.26
2023-03-18T00:11:52.326Z,-1.27
2023-03-18T00:14:19.506Z,-1.26
2023-03-18T00:16:46.302Z,-1.27
2023-03-18T00:19:13.264Z,-1.27
2023-03-18T00:21:40.344Z,-1.27
2023-03-18T00:24:07.688Z,-1.27
2023-03-18T00:26:34.604Z,-1.28
2023-03-18T00:29:01.733Z,-1.29
2023-03-18T00:31:30.011Z,-1.30
2023-03-18T00:33:58.036Z,-1.33
2023-03-18T00:36:26.437Z,-1.35
2023-03-18T00:38:57.699Z,-1.35
2023-03-18T00:41:26.149Z,-1.34
2023-03-18T00:43:54.040Z,-1.35
2023-03-18T00:46:23.597Z,-1.36
2023-03-18T00:48:51.049Z,-1.34
2023-03-18T00:51:18.716Z,-1.35
2023-03-18T00:53:47.137Z,-1.36
2023-03-18T00:56:14.738Z,-1.36
2023-03-18T00:58:42.556Z,-1.38
2023-03-18T01:01:09.835Z,-1.38
2023-03-18T01:03:36.790Z,-1.40
2023-03-18T01:06:04.394Z,-1.41
2023-03-18T01:08:32.087Z,-1.41
2023-03-18T01:10:59.206Z,-1.44
2023-03-18T01:13:26.169Z,-1.45
2023-03-18T01:15:53.003Z,-1.47
2023-03-18T01:18:20.158Z,-1.46
2023-03-18T01:20:47.361Z,-1.47
2023-03-18T01:23:15.854Z,-1.47
2023-03-18T01:25:44.696Z,-1.49
2023-03-18T01:28:15.795Z,-1.51
2023-03-18T01:30:43.031Z,-1.52
2023-03-18T01:33:10.351Z,-1.52
2023-03-18T01:35:37.564Z,-1.54
2023-03-18T01:38:05.595Z,-1.57
2023-03-18T01:40:34.987Z,-1.60
2023-03-18T01:43:14.433Z,-1.62
2023-03-18T01:45:43.012Z,-1.64
2023-03-18T01:48:14.580Z,-1.66
2023-03-18T01:50:41.557Z,-1.67
2023-03-18T01:53:11.198Z,-1.68
2023-03-18T01:55:38.545Z,-1.71
2023-03-18T01:58:08.778Z,-1.71
2023-03-18T02:00:39.883Z,-1.71
2023-03-18T02:03:06.930Z,-1.72
2023-03-18T02:05:34.745Z,-1.71
2023-03-18T02:08:01.954Z,-1.70
2023-03-18T02:10:29.896Z,-1.68
2023-03-18T02:13:04.200Z,-1.68
2023-03-18T02:15:38.970Z,-1.65
2023-03-18T02:18:11.095Z,-1.65
2023-03-18T02:20:44.374Z,-1.66
2023-03-18T02:23:43.187Z,-1.67
2023-03-18T02:26:13.705Z,-1.68
2023-03-18T02:28:41.962Z,-1.68
2023-03-18T02:31:11.959Z,-1.71
2023-03-18T02:33:42.864Z,-1.72
2023-03-18T02:36:11.967Z,-1.73
2023-03-18T02:38:43.098Z,-1.75
2023-03-18T02:41:17.313Z,-1.76
2023-03-18T02:43:44.727Z,-1.76
2023-03-18T02:46:18.009Z,-1.77
2023-03-18T02:48:46.264Z,-1.78
2023-03-18T02:51:14.921Z,-1.81
2023-03-18T02:53:42.005Z,-1.83
2023-03-18T02:56:09.529Z,-1.83
2023-03-18T02:58:37.179Z,-1.83
2023-03-18T03:01:05.081Z,-1.84
2023-03-18T03:03:32.026Z,-1.87
2023-03-18T03:05:58.923Z,-1.89
2023-03-18T03:08:26.203Z,-1.90
2023-03-18T03:10:53.663Z,-1.92
2023-03-18T03:13:22.405Z,-1.93
2023-03-18T03:15:49.952Z,-1.95
2023-03-18T03:18:16.932Z,-1.96
2023-03-18T03:20:45.013Z,-1.98
2023-03-18T03:23:13.432Z,-1.99
2023-03-18T03:25:40.583Z,-2.00
2023-03-18T03:28:08.835Z,-1.99
2023-03-18T03:30:36.819Z,-1.99
2023-03-18T03:33:04.138Z,-1.99
2023-03-18T03:35:31.396Z,-2.00
2023-03-18T03:37:58.678Z,-2.00
2023-03-18T03:40:26.231Z,-1.99
2023-03-18T03:42:53.386Z,-1.98
2023-03-18T03:45:20.524Z,-1.98
2023-03-18T03:47:47.865Z,-1.97
2023-03-18T03:50:16.774Z,-1.99
2023-03-18T03:52:43.791Z,-1.97
2023-03-18T03:55:12.448Z,-1.97
2023-03-18T03:57:40.096Z,-1.93
2023-03-18T04:00:13.586Z,-1.92
2023-03-18T04:02:47.234Z,-1.87
2023-03-18T04:05:15.223Z,-1.83
2023-03-18T04:07:42.420Z,-1.79
2023-03-18T04:10:12.131Z,-1.76
2023-03-18T04:12:40.042Z,-1.71
2023-03-18T04:15:08.263Z,-1.70
2023-03-18T04:17:35.260Z,-1.66
2023-03-18T04:20:03.460Z,-1.63
2023-03-18T04:22:32.020Z,-1.57
2023-03-18T04:25:00.623Z,-1.51
2023-03-18T04:27:28.295Z,-1.46
2023-03-18T04:29:58.420Z,-1.40
2023-03-18T04:32:33.002Z,-1.35
2023-03-18T04:35:00.059Z,-1.30
2023-03-18T04:37:27.170Z,-1.24
2023-03-18T04:39:56.726Z,-1.19
2023-03-18T04:42:23.668Z,-1.14
2023-03-18T04:44:50.799Z,-1.09
2023-03-18T04:47:18.330Z,-1.03
2023-03-18T04:49:49.370Z,-0.95
2023-03-18T04:52:16.656Z,-0.89
2023-03-18T04:54:44.703Z,-0.85
2023-03-18T04:57:12.787Z,-0.81
2023-03-18T04:59:47.356Z,-0.76
2023-03-18T05:02:14.521Z,-0.70
2023-03-18T05:04:41.763Z,-0.65
2023-03-18T05:07:08.790Z,-0.58
2023-03-18T05:09:39.171Z,-0.53
2023-03-18T05:12:11.443Z,-0.47
2023-03-18T05:14:38.370Z,-0.41
2023-03-18T05:17:05.318Z,-0.35
2023-03-18T05:19:35.635Z,-0.29
2023-03-18T05:22:11.714Z,-0.23
2023-03-18T05:24:39.759Z,-0.16
2023-03-18T05:27:06.812Z,-0.09
2023-03-18T05:29:40.404Z,-0.02
2023-03-18T05:32:14.818Z,0.05
2023-03-18T05:34:42.394Z,0.11
2023-03-18T05:37:11.444Z,0.18
2023-03-18T05:39:44.974Z,0.25
2023-03-18T05:42:14.997Z,0.32
2023-03-18T05:44:42.443Z,0.39
2023-03-18T05:47:11.143Z,0.44
2023-03-18T05:49:48.421Z,0.51
2023-03-18T05:52:21.606Z,0.58
2023-03-18T05:54:50.796Z,0.67
2023-03-18T05:57:23.878Z,0.74
2023-03-18T05:59:56.792Z,0.80
2023-03-18T06:02:25.106Z,0.86
2023-03-18T06:04:52.810Z,0.90
2023-03-18T06:07:20.870Z,0.94
2023-03-18T06:09:48.030Z,1.00
2023-03-18T06:12:15.259Z,1.05
2023-03-18T06:14:42.736Z,1.09
2023-03-18T06:17:09.916Z,1.12
2023-03-18T06:19:36.791Z,1.14
2023-03-18T06:22:03.587Z,1.16
2023-03-18T06:24:30.510Z,1.20
2023-03-18T06:26:58.262Z,1.22
2023-03-18T06:29:25.535Z,1.26
2023-03-18T06:31:55.795Z,1.29
2023-03-18T06:34:25.558Z,1.31
2023-03-18T06:36:52.485Z,1.33
2023-03-18T06:39:20.773Z,1.37
2023-03-18T06:41:47.832Z,1.40
2023-03-18T06:44:37.044Z,1.45
2023-03-18T06:47:20.077Z,1.50
2023-03-18T06:49:52.917Z,1.51
2023-03-18T06:52:27.739Z,1.54
2023-03-18T06:54:59.247Z,1.59
2023-03-18T06:57:27.195Z,1.64
2023-03-18T06:59:55.046Z,1.70
2023-03-18T07:02:23.772Z,1.74
2023-03-18T07:04:52.460Z,1.81
2023-03-18T07:07:19.548Z,1.86
2023-03-18T07:09:46.436Z,1.90
2023-03-18T07:12:16.786Z,1.94
2023-03-18T07:14:44.049Z,1.97
2023-03-18T07:17:10.965Z,2.02
2023-03-18T07:19:39.909Z,2.05
2023-03-18T07:22:06.794Z,2.07
2023-03-18T07:24:34.618Z,2.12
2023-03-18T07:27:01.557Z,2.16
2023-03-18T07:29:28.564Z,2.22
2023-03-18T07:31:55.956Z,2.27
2023-03-18T07:34:23.500Z,2.32
2023-03-18T07:36:50.566Z,2.38
2023-03-18T07:39:17.533Z,2.42
2023-03-18T07:41:44.333Z,2.48
2023-03-18T07:44:18.186Z,2.56
2023-03-18T07:46:45.600Z,2.63
2023-03-18T07:49:12.566Z,2.70
2023-03-18T07:51:39.338Z,2.77
2023-03-18T07:54:06.812Z,2.86
2023-03-18T07:56:34.780Z,2.95
2023-03-18T07:59:01.655Z,3.02
2023-03-18T08:01:28.962Z,3.14
2023-03-18T08:03:55.918Z,3.25
2023-03-18T08:06:22.990Z,3.36
2023-03-18T08:08:50.358Z,3.43
2023-03-18T08:11:17.133Z,3.47
2023-03-18T08:13:44.952Z,3.49
2023-03-18T08:16:12.415Z,3.54
2023-03-18T08:18:39.314Z,3.60
2023-03-18T08:21:06.186Z,3.66
2023-03-18T08:23:33.565Z,3.75
2023-03-18T08:26:00.409Z,3.85
2023-03-18T08:28:27.473Z,3.95
2023-03-18T08:30:56.021Z,4.04
2023-03-18T08:33:23.519Z,4.14
2023-03-18T08:35:50.372Z,4.22
2023-03-18T08:38:17.444Z,4.29
2023-03-18T08:40:44.457Z,4.27
2023-03-18T08:43:11.204Z,4.22
2023-03-18T08:45:38.109Z,4.14
2023-03-18T08:48:05.468Z,4.09
2023-03-18T08:50:32.311Z,4.06
2023-03-18T08:53:00.146Z,4.03
2023-03-18T08:55:35.396Z,4.03
2023-03-18T08:58:02.597Z,4.09
2023-03-18T09:00:29.654Z,4.17
2023-03-18T09:02:56.767Z,4.27
2023-03-18T09:05:25.154Z,4.35
2023-03-18T09:07:53.342Z,4.45
2023-03-18T09:10:20.352Z,4.51
2023-03-18T09:12:48.006Z,4.49
2023-03-18T09:15:20.296Z,4.44
2023-03-18T09:18:03.741Z,4.44
2023-03-18T09:20:35.915Z,4.43
2023-03-18T09:23:03.071Z,4.48
2023-03-18T09:25:30.161Z,4.55
2023-03-18T09:27:57.337Z,4.60
2023-03-18T09:30:25.749Z,4.63
2023-03-18T09:32:52.648Z,4.65
2023-03-18T09:35:19.942Z,4.66
2023-03-18T09:37:46.910Z,4.68
2023-03-18T09:40:26.461Z,4.68
2023-03-18T09:42:59.506Z,4.69
2023-03-18T09:46:00.127Z,4.76
2023-03-18T09:48:34.709Z,4.84
2023-03-18T09:51:10.444Z,4.90
2023-03-18T09:53:51.057Z,4.98
2023-03-18T09:56:20.964Z,5.04
2023-03-18T09:58:52.049Z,5.11
2023-03-18T10:01:19.627Z,5.17
2023-03-18T10:03:51.078Z,5.24
2023-03-18T10:06:19.779Z,5.31
2023-03-18T10:09:02.270Z,5.35
2023-03-18T10:11:37.928Z,5.33
2023-03-18T10:14:17.707Z,5.35
2023-03-18T10:17:04.868Z,5.36
2023-03-18T10:19:33.085Z,5.33
2023-03-18T10:22:26.061Z,5.32
2023-03-18T10:25:03.861Z,5.32
2023-03-18T10:27:49.281Z,5.33
2023-03-18T10:30:34.955Z,5.38
2023-03-18T10:33:01.918Z,5.50
2023-03-18T10:35:35.315Z,5.60
2023-03-18T10:38:04.671Z,5.67
2023-03-18T10:40:35.725Z,5.67
2023-03-18T10:43:03.012Z,5.69
2023-03-18T10:45:34.646Z,5.72
2023-03-18T10:48:06.065Z,5.70
2023-03-18T10:50:37.442Z,5.71
2023-03-18T10:53:14.898Z,5.71
2023-03-18T10:55:51.284Z,5.74
2023-03-18T10:58:19.602Z,5.80
2023-03-18T11:00:46.631Z,5.87
2023-03-18T11:03:25.394Z,5.96
2023-03-18T11:05:53.460Z,5.98
2023-03-18T11:08:37.023Z,5.99
2023-03-18T11:11:21.132Z,6.05
2023-03-18T11:13:49.948Z,6.13
2023-03-18T11:16:26.189Z,6.22
2023-03-18T11:18:53.171Z,6.30
2023-03-18T11:21:21.829Z,6.38
2023-03-18T11:24:24.652Z,6.44
2023-03-18T11:26:56.103Z,6.52
2023-03-18T11:29:25.968Z,6.59
2023-03-18T11:31:58.554Z,6.64
2023-03-18T11:34:29.536Z,6.66
2023-03-18T11:37:01.117Z,6.66
2023-03-18T11:39:29.748Z,6.63
2023-03-18T11:41:58.133Z,6.53
2023-03-18T11:44:28.048Z,6.47
2023-03-18T11:46:58.782Z,6.43
2023-03-18T11:49:27.262Z,6.44
2023-03-18T11:52:03.519Z,6.49
2023-03-18T11:54:36.802Z,6.50
2023-03-18T11:57:11.807Z,6.47
2023-03-18T11:59:41.474Z,6.44
2023-03-18T12:02:14.516Z,6.38
2023-03-18T12:04:55.670Z,6.29
2023-03-18T12:07:22.523Z,6.20
2023-03-18T12:10:14.939Z,6.18
2023-03-18T12:12:44.596Z,6.14
2023-03-18T12:15:30.279Z,6.06
2023-03-18T12:18:12.360Z,6.00
2023-03-18T12:20:50.740Z,5.97
2023-03-18T12:23:36.468Z,5.98
2023-03-18T12:26:05.978Z,6.17
2023-03-18T12:28:41.862Z,6.45
2023-03-18T12:31:12.071Z,6.83
2023-03-18T12:33:44.777Z,7.25
2023-03-18T12:36:12.531Z,7.75
2023-03-18T12:38:58.100Z,8.43
2023-03-18T12:41:36.057Z,9.23
2023-03-18T12:44:09.963Z,9.98
2023-03-18T12:46:43.020Z,10.74
2023-03-18T12:49:18.217Z,11.54
2023-03-18T12:51:56.390Z,12.44
2023-03-18T12:54:28.543Z,13.35
2023-03-18T12:57:01.870Z,14.09
2023-03-18T12:59:35.424Z,14.71
2023-03-18T13:02:05.250Z,15.10
2023-03-18T13:04:36.152Z,15.20
2023-03-18T13:07:08.139Z,15.31
2023-03-18T13:09:40.091Z,15.67
2023-03-18T13:12:10.158Z,16.04
2023-03-18T13:14:43.046Z,16.43
2023-03-18T13:17:37.311Z,17.07
2023-03-18T13:20:12.271Z,17.90
2023-03-18T13:22:42.270Z,18.47
2023-03-18T13:25:30.930Z,18.63
2023-03-18T13:28:16.520Z,18.58
2023-03-18T13:30:50.320Z,18.48
2023-03-18T13:33:19.863Z,18.60
2023-03-18T13:36:07.619Z,18.79
2023-03-18T13:38:43.726Z,18.96
2023-03-18T13:41:35.380Z,19.05
2023-03-18T13:44:06.149Z,19.28
2023-03-18T13:46:36.151Z,19.52
2023-03-18T13:49:04.184Z,19.72
2023-03-18T13:51:31.078Z,19.93
2023-03-18T13:54:00.327Z,19.92
2023-03-18T13:56:27.974Z,19.74
2023-03-18T13:58:57.034Z,19.57
2023-03-18T14:01:37.448Z,19.38
2023-03-18T14:04:43.052Z,19.23
2023-03-18T14:07:17.694Z,19.10
2023-03-18T14:09:47.622Z,19.09
2023-03-18T14:12:31.551Z,18.73
2023-03-18T14:15:06.116Z,18.00
2023-03-18T14:17:53.494Z,17.52
2023-03-18T14:20:21.847Z,17.21
2023-03-18T14:22:51.650Z,16.97
2023-03-18T14:25:18.564Z,16.63
2023-03-18T14:27:47.500Z,16.38
2023-03-18T14:30:29.665Z,16.38
2023-03-18T14:32:57.849Z,16.41
2023-03-18T14:35:29.498Z,16.49
2023-03-18T14:38:05.643Z,16.52
2023-03-18T14:40:38.395Z,16.16
2023-03-18T14:43:10.728Z,15.54
2023-03-18T14:45:40.309Z,14.97
2023-03-18T14:48:27.503Z,14.52
2023-03-18T14:50:55.061Z,14.36
2023-03-18T14:53:28.827Z,14.35
2023-03-18T14:55:59.164Z,14.16
2023-03-18T14:58:27.632Z,13.78
2023-03-18T15:01:04.671Z,13.24
2023-03-18T15:03:32.495Z,12.58
2023-03-18T15:06:03.546Z,11.83
2023-03-18T15:08:47.809Z,11.13
2023-03-18T15:11:18.353Z,10.74
2023-03-18T15:13:46.587Z,10.72
2023-03-18T15:16:19.084Z,10.83
2023-03-18T15:18:46.506Z,10.81
2023-03-18T15:21:15.687Z,10.56
2023-03-18T15:23:46.667Z,10.20
2023-03-18T15:26:22.563Z,9.75
2023-03-18T15:28:56.607Z,9.15
2023-03-18T15:31:28.360Z,8.52
2023-03-18T15:34:14.581Z,7.93
2023-03-18T15:37:01.124Z,7.42
2023-03-18T15:39:28.373Z,6.94
2023-03-18T15:41:58.758Z,6.57
2023-03-18T15:44:28.964Z,6.23
2023-03-18T15:47:03.042Z,5.90
2023-03-18T15:49:29.925Z,5.61
2023-03-18T15:52:02.056Z,5.35
2023-03-18T15:54:30.245Z,5.09
2023-03-18T15:56:58.414Z,4.87
2023-03-18T15:59:27.481Z,4.66
2023-03-18T16:01:58.084Z,4.49
2023-03-18T16:04:28.939Z,4.32
2023-03-18T16:06:55.837Z,4.15
2023-03-18T16:09:24.291Z,4.00
2023-03-18T16:11:55.623Z,3.86
2023-03-18T16:14:24.099Z,3.73
2023-03-18T16:16:55.223Z,3.64
2023-03-18T16:19:25.916Z,3.52
2023-03-18T16:21:59.948Z,3.41
2023-03-18T16:24:29.403Z,3.33
2023-03-18T16:26:57.345Z,3.24
2023-03-18T16:29:32.987Z,3.15
2023-03-18T16:32:06.437Z,3.07
2023-03-18T16:34:35.850Z,2.99
2023-03-18T16:37:05.035Z,2.92
2023-03-18T16:39:34.298Z,2.86
2023-03-18T16:42:03.569Z,2.79
2023-03-18T16:44:33.026Z,2.72
2023-03-18T16:47:01.544Z,2.67
2023-03-18T16:49:33.309Z,2.62
2023-03-18T16:52:04.969Z,2.57
2023-03-18T16:54:32.744Z,2.52
2023-03-18T16:57:04.617Z,2.47
2023-03-18T16:59:33.846Z,2.43
2023-03-18T17:02:01.441Z,2.38
2023-03-18T17:04:29.544Z,2.37
2023-03-18T17:06:58.002Z,2.33
2023-03-18T17:09:26.448Z,2.29
2023-03-18T17:12:05.913Z,2.26
2023-03-18T17:14:38.237Z,2.22
2023-03-18T17:17:14.828Z,2.19
2023-03-18T17:19:41.783Z,2.16
2023-03-18T17:22:19.934Z,2.12
2023-03-18T17:24:47.385Z,2.08
2023-03-18T17:27:25.786Z,2.05
2023-03-18T17:29:53.504Z,2.00
2023-03-18T17:32:22.507Z,1.97
2023-03-18T17:34:51.315Z,1.95
2023-03-18T17:37:30.524Z,1.92
2023-03-18T17:39:57.785Z,1.90
2023-03-18T17:42:28.373Z,1.86
2023-03-18T17:44:55.670Z,1.83
2023-03-18T17:47:22.803Z,1.80
2023-03-18T17:49:49.649Z,1.77
2023-03-18T17:52:19.841Z,1.75
2023-03-18T17:54:47.097Z,1.71
2023-03-18T17:57:17.649Z,1.69
2023-03-18T17:59:44.567Z,1.65
2023-03-18T18:02:17.860Z,1.60
2023-03-18T18:04:45.032Z,1.57
2023-03-18T18:07:19.298Z,1.53
2023-03-18T18:09:47.063Z,1.51
2023-03-18T18:12:21.634Z,1.45
2023-03-18T18:14:48.877Z,1.42
2023-03-18T18:17:16.215Z,1.40
2023-03-18T18:19:44.004Z,1.39
2023-03-18T18:22:22.387Z,1.37
2023-03-18T18:24:50.462Z,1.34
2023-03-18T18:27:17.491Z,1.32
2023-03-18T18:29:46.054Z,1.28
2023-03-18T18:32:13.437Z,1.28
2023-03-18T18:34:40.318Z,1.24
2023-03-18T18:37:07.951Z,1.23
2023-03-18T18:39:35.187Z,1.20
2023-03-18T18:42:02.969Z,1.17
2023-03-18T18:44:29.750Z,1.15
2023-03-18T18:46:57.388Z,1.13
2023-03-18T18:49:24.782Z,1.10
2023-03-18T18:51:56.311Z,1.10
2023-03-18T18:54:24.190Z,1.05
2023-03-18T18:56:51.350Z,1.02
2023-03-18T18:59:23.343Z,1.00
2023-03-18T19:01:53.394Z,0.96
2023-03-18T19:04:21.985Z,0.95
2023-03-18T19:06:52.827Z,0.92
2023-03-18T19:09:26.245Z,0.89
2023-03-18T19:11:53.869Z,0.87
2023-03-18T19:14:24.639Z,0.83
2023-03-18T19:16:52.145Z,0.82
2023-03-18T19:19:20.791Z,0.78
2023-03-18T19:21:47.511Z,0.76
2023-03-18T19:24:23.772Z,0.73
2023-03-18T19:26:51.108Z,0.71
2023-03-18T19:29:18.179Z,0.69
2023-03-18T19:31:45.733Z,0.66
2023-03-18T19:34:16.836Z,0.65
2023-03-18T19:36:44.233Z,0.61
2023-03-18T19:39:17.819Z,0.58
2023-03-18T19:41:45.020Z,0.55
2023-03-18T19:44:17.098Z,0.50
2023-03-18T19:46:44.873Z,0.47
2023-03-18T19:49:17.723Z,0.45
2023-03-18T19:51:44.526Z,0.42
2023-03-18T19:54:20.438Z,0.39
2023-03-18T19:56:48.213Z,0.37
2023-03-18T19:59:25.303Z,0.35
2023-03-18T20:01:52.079Z,0.32
2023-03-18T20:04:19.524Z,0.30
2023-03-18T20:06:50.511Z,0.26
2023-03-18T20:09:20.056Z,0.24
2023-03-18T20:11:48.942Z,0.21
2023-03-18T20:14:30.001Z,0.18
2023-03-18T20:17:00.794Z,0.15
2023-03-18T20:19:27.642Z,0.12
2023-03-18T20:21:56.863Z,0.10
2023-03-18T20:24:28.766Z,0.09
2023-03-18T20:26:55.524Z,0.07
2023-03-18T20:29:25.290Z,0.05
2023-03-18T20:31:52.173Z,0.04
2023-03-18T20:34:19.218Z,0.02
2023-03-18T20:36:46.015Z,-0.01
2023-03-18T20:39:22.470Z,-0.04
2023-03-18T20:41:50.046Z,-0.07
2023-03-18T20:44:16.820Z,-0.07
2023-03-18T20:46:43.610Z,-0.10
2023-03-18T20:49:10.434Z,-0.13
2023-03-18T20:51:41.811Z,-0.15
2023-03-18T20:54:16.162Z,-0.17
2023-03-18T20:56:42.886Z,-0.20
2023-03-18T20:59:10.999Z,-0.23
2023-03-18T21:01:38.092Z,-0.24
2023-03-18T21:04:05.136Z,-0.27
2023-03-18T21:06:40.199Z,-0.30
2023-03-18T21:09:21.773Z,-0.32
2023-03-18T21:11:56.143Z,-0.36
2023-03-18T21:14:22.902Z,-0.39
2023-03-18T21:16:51.884Z,-0.42
2023-03-18T21:19:18.742Z,-0.44
2023-03-18T21:21:45.730Z,-0.46
2023-03-18T21:24:25.156Z,-0.47
2023-03-18T21:27:03.773Z,-0.50
2023-03-18T21:29:31.841Z,-0.52
2023-03-18T21:31:58.882Z,-0.53
2023-03-18T21:34:25.698Z,-0.54
2023-03-18T21:36:52.490Z,-0.57
2023-03-18T21:39:21.123Z,-0.59
2023-03-18T21:41:47.935Z,-0.60
2023-03-18T21:44:14.813Z,-0.62
2023-03-18T21:46:41.766Z,-0.64
2023-03-18T21:49:08.571Z,-0.67
2023-03-18T21:51:39.669Z,-0.69
2023-03-18T21:54:16.274Z,-0.71
2023-03-18T21:56:43.083Z,-0.73
2023-03-18T21:59:10.097Z,-0.74
2023-03-18T22:01:37.044Z,-0.76
2023-03-18T22:04:06.310Z,-0.78
2023-03-18T22:06:34.088Z,-0.79
2023-03-18T22:09:00.931Z,-0.80
2023-03-18T22:11:28.027Z,-0.83
2023-03-18T22:13:55.268Z,-0.84
2023-03-18T22:16:22.194Z,-0.87
2023-03-18T22:18:48.979Z,-0.89
2023-03-18T22:21:21.100Z,-0.89
2023-03-18T22:23:47.996Z,-0.90
2023-03-18T22:26:16.017Z,-0.93
2023-03-18T22:28:43.335Z,-0.95
2023-03-18T22:31:19.066Z,-0.96
2023-03-18T22:33:46.678Z,-0.99
2023-03-18T22:36:14.551Z,-1.01
2023-03-18T22:38:41.473Z,-1.03
2023-03-18T22:41:22.173Z,-1.05
2023-03-18T22:43:49.037Z,-1.08
2023-03-18T22:46:16.135Z,-1.09
2023-03-18T22:48:43.561Z,-1.10
2023-03-18T22:51:22.116Z,-1.14
2023-03-18T22:53:50.810Z,-1.15
2023-03-18T22:56:21.075Z,-1.17
2023-03-18T22:58:47.930Z,-1.18
2023-03-18T23:01:16.518Z,-1.19
2023-03-18T23:03:44.886Z,-1.21
2023-03-18T23:06:20.035Z,-1.24
2023-03-18T23:08:46.910Z,-1.25
2023-03-18T23:11:13.812Z,-1.27
2023-03-18T23:13:41.837Z,-1.29
2023-03-18T23:16:11.737Z,-1.30
2023-03-18T23:18:38.559Z,-1.32
2023-03-18T23:21:05.478Z,-1.34
2023-03-18T23:23:32.352Z,-1.35
2023-03-18T23:25:59.304Z,-1.35
2023-03-18T23:28:26.112Z,-1.39
2023-03-18T23:30:53.532Z,-1.41
2023-03-18T23:33:20.632Z,-1.43
2023-03-18T23:35:48.328Z,-1.44
2023-03-18T23:38:15.087Z,-1.47
2023-03-18T23:40:42.012Z,-1.48
2023-03-18T23:43:09.298Z,-1.49
2023-03-18T23:45:37.307Z,-1.51
2023-03-18T23:48:04.678Z,-1.51
2023-03-18T23:50:31.527Z,-1.52
2023-03-18T23:52:59.143Z,-1.53
2023-03-18T23:55:34.422Z,-1.53
2023-03-18T23:58:01.570Z,-1.56
